createdAt,value
2022-11-30T00:00:57.545Z,5.96
2022-11-30T00:03:24.910Z,6.15
2022-11-30T00:05:52.109Z,6.37
2022-11-30T00:08:18.734Z,6.60
2022-11-30T00:10:45.237Z,5.93
2022-11-30T00:13:11.750Z,6.11
2022-11-30T00:15:38.414Z,6.17
2022-11-30T00:18:05.466Z,6.13
2022-11-30T00:20:32.291Z,6.14
2022-11-30T00:22:58.760Z,6.05
2022-11-30T00:25:25.990Z,5.85
2022-11-30T00:27:52.468Z,5.72
2022-11-30T00:30:19.247Z,6.04
2022-11-30T00:32:45.680Z,5.91
2022-11-30T00:35:12.167Z,5.84
2022-11-30T00:37:38.642Z,5.51
2022-11-30T00:40:06.548Z,5.50
2022-11-30T00:42:32.999Z,5.72
2022-11-30T00:45:02.441Z,5.52
2022-11-30T00:47:28.901Z,5.66
2022-11-30T00:49:55.367Z,5.42
2022-11-30T00:52:21.856Z,5.78
2022-11-30T00:54:48.471Z,6.23
2022-11-30T00:57:15.268Z,6.22
2022-11-30T00:59:41.720Z,6.44
2022-11-30T01:02:08.226Z,6.32
2022-11-30T01:04:34.739Z,6.31
2022-11-30T01:07:01.321Z,6.30
2022-11-30T01:09:27.769Z,6.31
2022-11-30T01:11:54.241Z,6.08
2022-11-30T01:14:20.695Z,6.53
2022-11-30T01:16:49.694Z,6.53
2022-11-30T01:19:18.451Z,6.14
2022-11-30T01:21:44.907Z,5.94
2022-11-30T01:24:11.383Z,6.16
2022-11-30T01:26:37.901Z,6.35
2022-11-30T01:29:04.412Z,6.33
2022-11-30T01:31:30.932Z,6.22
2022-11-30T01:33:57.424Z,6.36
2022-11-30T01:36:26.233Z,6.45
2022-11-30T01:38:58.042Z,7.04
2022-11-30T01:41:32.181Z,6.75
2022-11-30T01:44:20.240Z,6.67
2022-11-30T01:47:09.900Z,6.51
2022-11-30T01:49:44.117Z,6.58
2022-11-30T01:52:28.965Z,6.59
2022-11-30T01:55:06.534Z,6.83
2022-11-30T01:57:47.063Z,6.92
2022-11-30T02:00:15.400Z,6.74
2022-11-30T02:02:52.951Z,6.61
2022-11-30T02:05:21.712Z,6.41
2022-11-30T02:07:48.320Z,6.63
2022-11-30T02:10:18.059Z,6.62
2022-11-30T02:13:06.476Z,6.31
2022-11-30T02:15:49.429Z,6.32
2022-11-30T02:18:26.637Z,6.37
2022-11-30T02:21:01.741Z,6.42
2022-11-30T02:23:53.011Z,6.67
2022-11-30T02:26:40.249Z,6.41
2022-11-30T02:29:37.320Z,6.26
2022-11-30T02:32:29.157Z,6.44
2022-11-30T02:34:59.616Z,6.63
2022-11-30T02:37:29.775Z,6.72
2022-11-30T02:39:57.565Z,6.40
2022-11-30T02:42:24.022Z,6.31
2022-11-30T02:44:53.918Z,6.34
2022-11-30T02:47:55.169Z,6.19
2022-11-30T02:50:32.937Z,5.61
2022-11-30T02:53:00.176Z,5.63
2022-11-30T02:55:28.997Z,5.60
2022-11-30T02:57:55.452Z,5.63
2022-11-30T03:00:22.100Z,5.73
2022-11-30T03:02:48.696Z,5.45
2022-11-30T03:05:15.318Z,5.24
2022-11-30T03:07:41.869Z,5.72
2022-11-30T03:10:09.169Z,5.73
2022-11-30T03:12:36.192Z,5.71
2022-11-30T03:15:02.884Z,5.93
2022-11-30T03:17:29.372Z,6.45
2022-11-30T03:19:55.876Z,6.31
2022-11-30T03:22:22.550Z,6.35
2022-11-30T03:24:49.252Z,6.53
2022-11-30T03:27:15.978Z,6.65
2022-11-30T03:29:42.592Z,6.64
2022-11-30T03:32:09.036Z,6.85
2022-11-30T03:34:35.494Z,6.79
2022-11-30T03:37:01.947Z,6.94
2022-11-30T03:39:28.477Z,6.89
2022-11-30T03:41:54.940Z,7.16
2022-11-30T03:44:21.417Z,7.17
2022-11-30T03:46:47.975Z,7.48
2022-11-30T03:49:14.480Z,7.14
2022-11-30T03:51:40.939Z,6.78
2022-11-30T03:54:07.373Z,6.98
2022-11-30T03:56:33.817Z,6.82
2022-11-30T03:59:00.288Z,7.20
2022-11-30T04:01:27.025Z,7.12
2022-11-30T04:03:54.291Z,7.78
2022-11-30T04:06:22.273Z,7.54
2022-11-30T04:08:48.807Z,7.73
2022-11-30T04:11:16.216Z,7.77
2022-11-30T04:14:02.723Z,7.80
2022-11-30T04:16:42.649Z,7.53
2022-11-30T04:19:09.078Z,7.38
2022-11-30T04:21:35.529Z,7.24
2022-11-30T04:24:01.975Z,7.37
2022-11-30T04:26:28.433Z,7.04
2022-11-30T04:28:54.879Z,6.99
2022-11-30T04:31:21.354Z,6.72
2022-11-30T04:33:47.871Z,6.74
2022-11-30T04:36:20.042Z,6.63
2022-11-30T04:38:47.704Z,6.53
2022-11-30T04:41:14.294Z,6.41
2022-11-30T04:43:40.833Z,6.57
2022-11-30T04:46:07.639Z,6.49
2022-11-30T04:48:34.609Z,6.18
2022-11-30T04:51:02.957Z,6.24
2022-11-30T04:53:29.440Z,6.12
2022-11-30T04:55:55.932Z,6.35
2022-11-30T04:58:22.727Z,6.02
2022-11-30T05:00:49.194Z,6.50
2022-11-30T05:03:15.627Z,6.50
2022-11-30T05:05:42.202Z,6.44
2022-11-30T05:08:09.233Z,6.65
2022-11-30T05:10:35.673Z,6.71
2022-11-30T05:13:02.121Z,6.50
2022-11-30T05:15:28.574Z,6.55
2022-11-30T05:17:58.455Z,6.86
2022-11-30T05:20:24.938Z,6.49
2022-11-30T05:22:51.380Z,6.38
2022-11-30T05:25:17.848Z,6.79
2022-11-30T05:27:44.362Z,6.89
2022-11-30T05:30:12.442Z,6.77
2022-11-30T05:32:38.964Z,6.42
2022-11-30T05:35:05.625Z,6.42
2022-11-30T05:37:32.076Z,6.18
2022-11-30T05:39:58.541Z,5.43
2022-11-30T05:42:24.988Z,5.30
2022-11-30T05:44:51.424Z,4.83
2022-11-30T05:47:17.914Z,4.67
2022-11-30T05:49:44.417Z,4.79
2022-11-30T05:52:11.096Z,5.08
2022-11-30T05:54:37.543Z,4.85
2022-11-30T05:57:04.021Z,5.11
2022-11-30T05:59:30.547Z,5.10
2022-11-30T06:01:57.090Z,5.19
2022-11-30T06:04:23.660Z,4.68
2022-11-30T06:06:50.113Z,5.14
2022-11-30T06:09:16.716Z,4.96
2022-11-30T06:11:43.280Z,5.11
2022-11-30T06:14:09.728Z,4.92
2022-11-30T06:16:38.842Z,5.23
2022-11-30T06:19:05.442Z,5.39
2022-11-30T06:21:31.915Z,5.37
2022-11-30T06:23:58.352Z,5.28
2022-11-30T06:26:24.820Z,4.97
2022-11-30T06:28:51.285Z,5.22
2022-11-30T06:31:17.827Z,5.52
2022-11-30T06:33:44.348Z,5.40
2022-11-30T06:36:10.833Z,5.15
2022-11-30T06:38:37.463Z,5.07
2022-11-30T06:41:09.691Z,5.59
2022-11-30T06:43:38.320Z,5.58
2022-11-30T06:46:06.761Z,5.51
2022-11-30T06:48:34.168Z,5.34
2022-11-30T06:51:01.619Z,5.08
2022-11-30T06:53:28.093Z,4.84
2022-11-30T06:55:54.550Z,5.03
2022-11-30T06:58:21.027Z,4.81
2022-11-30T07:00:47.573Z,5.13
2022-11-30T07:03:14.412Z,5.63
2022-11-30T07:05:44.700Z,5.96
2022-11-30T07:08:13.129Z,6.18
2022-11-30T07:10:47.595Z,5.87
2022-11-30T07:13:18.437Z,5.73
2022-11-30T07:15:45.759Z,6.21
2022-11-30T07:18:12.580Z,6.32
2022-11-30T07:20:40.153Z,6.34
2022-11-30T07:23:06.874Z,6.23
2022-11-30T07:25:33.338Z,5.87
2022-11-30T07:27:59.781Z,5.75
2022-11-30T07:30:26.327Z,5.95
2022-11-30T07:32:52.780Z,5.94
2022-11-30T07:35:19.236Z,5.96
2022-11-30T07:37:45.746Z,5.81
2022-11-30T07:40:12.641Z,5.90
2022-11-30T07:42:39.103Z,6.08
2022-11-30T07:45:06.161Z,6.20
2022-11-30T07:47:32.693Z,5.48
2022-11-30T07:49:59.151Z,5.64
2022-11-30T07:52:25.730Z,6.11
2022-11-30T07:54:52.204Z,6.16
2022-11-30T07:57:18.708Z,6.20
2022-11-30T07:59:45.701Z,6.19
2022-11-30T08:02:12.571Z,6.29
2022-11-30T08:04:39.147Z,5.71
2022-11-30T08:07:05.653Z,6.05
2022-11-30T08:09:32.108Z,6.06
2022-11-30T08:11:58.583Z,6.27
2022-11-30T08:14:25.034Z,6.23
2022-11-30T08:16:51.550Z,6.31
2022-11-30T08:19:18.054Z,5.66
2022-11-30T08:21:44.554Z,5.73
2022-11-30T08:24:12.084Z,5.78
2022-11-30T08:26:38.628Z,6.17
2022-11-30T08:29:05.110Z,5.87
2022-11-30T08:31:35.149Z,6.26
2022-11-30T08:34:04.937Z,5.96
2022-11-30T08:36:31.701Z,6.45
2022-11-30T08:39:00.045Z,6.29
2022-11-30T08:41:27.076Z,5.90
2022-11-30T08:43:54.195Z,5.56
2022-11-30T08:49:21.473Z,5.61
2022-11-30T08:52:16.455Z,5.90
2022-11-30T08:54:37.776Z,5.50
2022-11-30T08:57:04.249Z,5.76
2022-11-30T08:59:31.601Z,6.85
2022-11-30T09:01:58.098Z,6.28
2022-11-30T09:04:24.693Z,6.09
2022-11-30T09:06:51.187Z,5.91
2022-11-30T09:09:17.681Z,6.21
2022-11-30T09:11:44.400Z,5.80
2022-11-30T09:14:10.878Z,5.79
2022-11-30T09:16:37.333Z,5.78
2022-11-30T09:19:03.833Z,5.92
2022-11-30T09:21:30.479Z,5.76
2022-11-30T09:23:57.720Z,5.77
2022-11-30T09:26:24.269Z,5.76
2022-11-30T09:28:52.124Z,5.79
2022-11-30T09:31:24.621Z,6.06
2022-11-30T09:33:52.013Z,6.18
2022-11-30T09:36:22.710Z,6.35
2022-11-30T09:38:49.827Z,7.96
2022-11-30T09:41:28.321Z,7.41
2022-11-30T09:44:15.237Z,6.54
2022-11-30T09:46:50.821Z,5.65
2022-11-30T09:49:48.411Z,6.13
2022-11-30T09:52:37.040Z,6.22
2022-11-30T09:55:09.530Z,6.17
2022-11-30T09:57:46.418Z,6.09
2022-11-30T10:00:19.568Z,6.11
2022-11-30T10:02:46.517Z,5.98
2022-11-30T10:05:38.535Z,5.53
2022-11-30T10:08:25.084Z,5.71
2022-11-30T10:11:18.652Z,5.63
2022-11-30T10:14:26.457Z,5.45
2022-11-30T10:17:19.984Z,5.68
2022-11-30T10:20:14.449Z,5.26
2022-11-30T10:23:15.576Z,5.56
2022-11-30T10:25:50.846Z,5.79
2022-11-30T10:31:15.347Z,4.59
2022-11-30T10:33:50.750Z,4.69
2022-11-30T10:36:33.091Z,4.51
2022-11-30T10:39:05.188Z,4.98
2022-11-30T10:41:47.427Z,5.29
2022-11-30T10:44:16.891Z,5.43
2022-11-30T10:46:55.106Z,5.05
2022-11-30T10:49:25.406Z,4.87
2022-11-30T10:52:06.255Z,4.46
2022-11-30T10:54:36.359Z,4.50
2022-11-30T10:57:06.040Z,4.63
2022-11-30T10:59:53.296Z,4.54
2022-11-30T11:02:38.582Z,3.85
2022-11-30T11:05:18.933Z,3.87
2022-11-30T11:08:24.536Z,4.05
2022-11-30T11:10:51.097Z,4.74
2022-11-30T11:13:34.795Z,4.43
2022-11-30T11:16:03.009Z,4.72
2022-11-30T11:18:31.910Z,4.89
2022-11-30T11:21:16.281Z,4.54
2022-11-30T11:23:45.062Z,4.63
2022-11-30T11:26:26.900Z,4.41
2022-11-30T11:28:58.963Z,4.42
2022-11-30T11:31:45.464Z,4.24
2022-11-30T11:34:33.565Z,4.04
2022-11-30T11:37:22.044Z,4.46
2022-11-30T11:40:15.974Z,4.25
2022-11-30T11:42:50.601Z,4.43
2022-11-30T11:45:20.709Z,4.58
2022-11-30T11:48:00.307Z,4.52
2022-11-30T11:51:05.649Z,4.30
2022-11-30T11:53:42.678Z,4.18
2022-11-30T11:56:25.780Z,4.17
2022-11-30T11:59:03.390Z,4.57
2022-11-30T12:01:41.947Z,5.27
2022-11-30T12:04:37.510Z,4.53
2022-11-30T12:07:33.812Z,4.72
2022-11-30T12:10:50.104Z,4.40
2022-11-30T12:13:14.458Z,3.92
2022-11-30T12:16:11.453Z,3.93
2022-11-30T12:18:59.764Z,4.95
2022-11-30T12:21:58.727Z,3.86
2022-11-30T12:24:31.278Z,4.06
2022-11-30T12:27:11.742Z,3.80
2022-11-30T12:29:51.323Z,3.66
2022-11-30T12:32:45.889Z,3.81
2022-11-30T12:35:30.633Z,3.98
2022-11-30T12:38:20.767Z,3.75
2022-11-30T12:41:15.413Z,3.71
2022-11-30T12:44:00.768Z,4.00
2022-11-30T12:46:41.179Z,4.11
2022-11-30T12:49:46.014Z,4.24
2022-11-30T12:52:21.544Z,4.31
2022-11-30T12:55:00.316Z,4.40
2022-11-30T12:57:36.407Z,4.31
2022-11-30T13:00:13.268Z,4.24
2022-11-30T13:02:39.759Z,4.46
2022-11-30T13:05:16.532Z,4.30
2022-11-30T13:08:02.298Z,4.45
2022-11-30T13:10:42.711Z,4.40
2022-11-30T13:13:21.028Z,4.23
2022-11-30T13:15:49.109Z,4.52
2022-11-30T13:18:19.836Z,4.60
2022-11-30T13:21:06.597Z,4.97
2022-11-30T13:23:41.448Z,5.12
2022-11-30T13:26:20.057Z,4.75
2022-11-30T13:28:57.695Z,4.89
2022-11-30T13:31:43.587Z,4.86
2022-11-30T13:34:30.397Z,4.66
2022-11-30T13:37:13.832Z,4.69
2022-11-30T13:39:52.820Z,5.10
2022-11-30T13:42:43.003Z,4.97
2022-11-30T13:45:14.426Z,4.93
2022-11-30T13:47:47.829Z,4.77
2022-11-30T13:50:38.508Z,5.04
2022-11-30T13:53:23.225Z,5.14
2022-11-30T13:56:04.894Z,5.26
2022-11-30T13:58:32.143Z,5.12
2022-11-30T14:04:19.978Z,4.75
2022-11-30T14:06:54.745Z,4.89
2022-11-30T14:09:39.684Z,5.09
2022-11-30T14:12:31.018Z,5.37
2022-11-30T14:15:01.852Z,5.03
2022-11-30T14:17:34.715Z,5.32
2022-11-30T14:20:24.329Z,5.27
2022-11-30T14:22:51.709Z,5.61
2022-11-30T14:25:20.771Z,5.55
2022-11-30T14:27:52.616Z,6.05
2022-11-30T14:30:23.186Z,6.12
2022-11-30T14:33:01.433Z,6.27
2022-11-30T14:35:31.827Z,6.29
2022-11-30T14:38:01.096Z,6.56
2022-11-30T14:40:29.320Z,6.60
2022-11-30T14:42:59.162Z,6.62
2022-11-30T14:45:31.712Z,6.76
2022-11-30T14:48:15.166Z,6.66
2022-11-30T14:50:51.445Z,6.83
2022-11-30T14:53:31.413Z,6.87
2022-11-30T14:56:22.053Z,7.00
2022-11-30T14:59:03.249Z,7.11
2022-11-30T15:01:32.810Z,6.94
2022-11-30T15:04:12.471Z,6.80
2022-11-30T15:06:41.042Z,7.01
2022-11-30T15:09:18.775Z,6.79
2022-11-30T15:11:48.733Z,6.92
2022-11-30T15:14:16.594Z,7.61
2022-11-30T15:16:54.008Z,8.25
2022-11-30T15:19:24.347Z,8.39
2022-11-30T15:21:52.142Z,9.25
2022-11-30T15:24:19.220Z,9.35
2022-11-30T15:26:54.928Z,9.80
2022-11-30T15:29:31.293Z,9.45
2022-11-30T15:32:02.544Z,9.60
2022-11-30T15:34:45.591Z,9.42
2022-11-30T15:37:12.563Z,9.11
2022-11-30T15:39:39.815Z,8.90
2022-11-30T15:42:07.140Z,8.98
2022-11-30T15:44:42.869Z,8.99
2022-11-30T15:47:36.232Z,8.93
2022-11-30T15:50:31.029Z,8.67
2022-11-30T15:53:03.469Z,9.09
2022-11-30T15:55:49.738Z,8.69
2022-11-30T15:58:33.547Z,8.67
2022-11-30T16:01:02.470Z,9.04
2022-11-30T16:03:29.023Z,9.12
2022-11-30T16:05:58.364Z,9.52
2022-11-30T16:08:25.372Z,9.80
2022-11-30T16:10:52.201Z,10.04
2022-11-30T16:16:49.839Z,10.64
2022-11-30T16:19:16.373Z,10.63
2022-11-30T16:21:43.072Z,10.80
2022-11-30T16:24:13.835Z,10.52
2022-11-30T16:26:51.047Z,10.30
2022-11-30T16:29:18.521Z,10.14
2022-11-30T16:31:45.130Z,10.45
2022-11-30T16:34:11.824Z,10.35
2022-11-30T16:36:38.320Z,10.22
2022-11-30T16:39:05.252Z,9.79
2022-11-30T16:41:31.733Z,10.34
2022-11-30T16:43:58.260Z,10.51
2022-11-30T16:46:27.997Z,10.06
2022-11-30T16:48:55.369Z,9.95
2022-11-30T16:51:21.856Z,10.38
2022-11-30T16:53:48.352Z,10.83
2022-11-30T16:56:15.898Z,10.57
2022-11-30T16:58:43.358Z,10.85
2022-11-30T17:01:21.391Z,10.68
2022-11-30T17:03:51.276Z,10.97
2022-11-30T17:06:21.486Z,11.19
2022-11-30T17:08:50.983Z,10.90
2022-11-30T17:11:29.217Z,11.23
2022-11-30T17:13:55.839Z,11.00
2022-11-30T17:16:22.668Z,10.45
2022-11-30T17:18:49.167Z,10.55
2022-11-30T17:21:20.198Z,10.66
2022-11-30T17:23:46.669Z,10.58
2022-11-30T17:26:13.648Z,10.83
2022-11-30T17:28:40.201Z,10.42
2022-11-30T17:31:07.023Z,10.62
2022-11-30T17:33:34.638Z,10.62
2022-11-30T17:36:06.455Z,10.12
2022-11-30T17:38:34.955Z,10.29
2022-11-30T17:41:11.032Z,10.39
2022-11-30T17:43:39.476Z,11.05
2022-11-30T17:46:11.851Z,10.64
2022-11-30T17:48:38.740Z,10.71
2022-11-30T17:51:05.607Z,10.54
2022-11-30T17:53:32.230Z,10.83
2022-11-30T17:56:06.204Z,10.94
2022-11-30T17:58:35.415Z,10.44
2022-11-30T18:01:03.593Z,10.73
2022-11-30T18:03:30.213Z,10.22
2022-11-30T18:06:01.047Z,10.24
2022-11-30T18:08:28.564Z,9.96
2022-11-30T18:10:55.039Z,10.40
2022-11-30T18:13:22.194Z,9.81
2022-11-30T18:15:48.731Z,9.95
2022-11-30T18:18:15.434Z,10.14
2022-11-30T18:20:41.866Z,9.93
2022-11-30T18:23:09.416Z,10.43
2022-11-30T18:25:35.997Z,9.61
2022-11-30T18:28:02.477Z,9.76
2022-11-30T18:30:28.986Z,9.92
2022-11-30T18:32:55.513Z,9.73
2022-11-30T18:35:21.969Z,9.60
2022-11-30T18:37:48.428Z,9.85
2022-11-30T18:40:14.972Z,9.42
2022-11-30T18:42:41.405Z,9.54
2022-11-30T18:45:37.036Z,9.38
2022-11-30T18:48:03.740Z,8.99
2022-11-30T18:50:30.200Z,9.10
2022-11-30T18:52:56.785Z,8.92
2022-11-30T18:55:24.542Z,8.87
2022-11-30T18:57:51.483Z,8.88
2022-11-30T19:00:18.516Z,8.90
2022-11-30T19:02:46.940Z,9.01
2022-11-30T19:05:14.259Z,9.26
2022-11-30T19:07:40.772Z,9.30
2022-11-30T19:10:08.517Z,9.13
2022-11-30T19:12:35.029Z,9.57
2022-11-30T19:15:04.921Z,9.55
2022-11-30T19:17:31.383Z,9.14
2022-11-30T19:19:58.105Z,9.39
2022-11-30T19:22:24.608Z,9.18
2022-11-30T19:24:51.073Z,8.98
2022-11-30T19:27:17.572Z,9.12
2022-11-30T19:29:44.056Z,9.26
2022-11-30T19:32:10.546Z,9.00
2022-11-30T19:34:37.155Z,9.13
2022-11-30T19:37:03.625Z,9.26
2022-11-30T19:39:30.087Z,9.42
2022-11-30T19:41:59.093Z,9.42
2022-11-30T19:44:25.593Z,9.96
2022-11-30T19:46:52.052Z,9.80
2022-11-30T19:49:18.564Z,10.44
2022-11-30T19:51:45.049Z,11.13
2022-11-30T19:54:11.549Z,10.57
2022-11-30T19:56:38.264Z,10.96
2022-11-30T19:59:06.018Z,10.52
2022-11-30T20:01:33.991Z,10.17
2022-11-30T20:04:00.927Z,10.18
2022-11-30T20:06:35.309Z,10.64
2022-11-30T20:09:03.343Z,11.39
2022-11-30T20:11:29.816Z,11.67
2022-11-30T20:13:56.308Z,11.44
2022-11-30T20:16:23.429Z,11.05
2022-11-30T20:18:55.808Z,11.51
2022-11-30T20:21:25.576Z,11.48
2022-11-30T20:23:53.820Z,11.17
2022-11-30T20:26:31.300Z,11.26
2022-11-30T20:29:00.100Z,11.79
2022-11-30T20:31:28.689Z,11.76
2022-11-30T20:33:55.570Z,11.91
2022-11-30T20:36:22.743Z,13.11
2022-11-30T20:38:49.760Z,13.41
2022-11-30T20:41:21.814Z,12.84
2022-11-30T20:43:49.099Z,12.43
2022-11-30T20:46:21.103Z,12.29
2022-11-30T20:48:48.653Z,11.97
2022-11-30T20:51:36.629Z,12.12
2022-11-30T20:54:07.221Z,12.12
2022-11-30T20:56:35.541Z,12.42
2022-11-30T20:59:04.830Z,12.50
2022-11-30T21:01:32.285Z,12.28
2022-11-30T21:04:02.123Z,12.79
2022-11-30T21:06:30.293Z,12.77
2022-11-30T21:08:57.660Z,13.48
2022-11-30T21:11:26.687Z,13.38
2022-11-30T21:13:54.176Z,13.22
2022-11-30T21:16:27.741Z,14.06
2022-11-30T21:18:57.761Z,14.93
2022-11-30T21:21:29.952Z,15.04
2022-11-30T21:24:01.745Z,14.26
2022-11-30T21:26:31.258Z,14.56
2022-11-30T21:29:11.792Z,14.98
2022-11-30T21:31:38.332Z,15.96
2022-11-30T21:34:04.999Z,15.61
2022-11-30T21:36:32.119Z,15.63
2022-11-30T21:39:06.031Z,15.94
2022-11-30T21:41:38.315Z,16.66
2022-11-30T21:44:06.980Z,16.62
2022-11-30T21:46:33.817Z,17.09
2022-11-30T21:49:00.691Z,17.43
2022-11-30T21:51:29.620Z,16.98
2022-11-30T21:53:58.723Z,17.72
2022-11-30T21:56:27.797Z,18.28
2022-11-30T21:58:54.713Z,18.84
2022-11-30T22:01:28.898Z,18.59
2022-11-30T22:03:56.842Z,19.16
2022-11-30T22:06:25.475Z,19.13
2022-11-30T22:08:52.087Z,19.55
2022-11-30T22:11:21.458Z,19.03
2022-11-30T22:13:53.050Z,19.43
2022-11-30T22:16:21.725Z,19.66
2022-11-30T22:18:48.610Z,19.93
2022-11-30T22:21:18.087Z,20.22
2022-11-30T22:23:47.306Z,19.88
2022-11-30T22:26:24.424Z,19.78
2022-11-30T22:28:54.668Z,19.78
2022-11-30T22:31:24.417Z,19.75
2022-11-30T22:33:51.333Z,19.67
2022-11-30T22:36:23.187Z,19.66
2022-11-30T22:39:01.018Z,19.13
2022-11-30T22:41:28.480Z,19.33
2022-11-30T22:43:56.159Z,17.84
2022-11-30T22:46:28.665Z,18.01
2022-11-30T22:48:55.483Z,17.88
2022-11-30T22:51:27.777Z,17.60
2022-11-30T22:53:56.245Z,17.56
2022-11-30T22:56:25.907Z,17.76
2022-11-30T22:58:54.966Z,16.60
2022-11-30T23:01:24.023Z,17.29
2022-11-30T23:03:52.641Z,15.68
2022-11-30T23:06:20.695Z,16.55
2022-11-30T23:08:48.902Z,17.14
2022-11-30T23:11:22.364Z,16.18
2022-11-30T23:13:49.144Z,16.54
2022-11-30T23:16:15.877Z,16.35
2022-11-30T23:18:51.604Z,15.94
2022-11-30T23:21:24.337Z,15.47
2022-11-30T23:23:50.845Z,15.24
2022-11-30T23:26:20.629Z,15.28
2022-11-30T23:28:49.143Z,14.97
2022-11-30T23:31:34.502Z,14.70
2022-11-30T23:34:08.090Z,14.70
2022-11-30T23:36:35.695Z,14.61
2022-11-30T23:39:08.441Z,14.89
2022-11-30T23:41:34.976Z,15.13
2022-11-30T23:44:01.685Z,14.67
2022-11-30T23:46:28.331Z,14.94
2022-11-30T23:48:54.901Z,14.14
2022-11-30T23:51:22.540Z,14.13
2022-11-30T23:53:48.994Z,14.10
2022-11-30T23:56:17.499Z,13.90
2022-11-30T23:58:44.392Z,14.18
